createdAt,value
2022-08-17T00:00:43.332Z,63.37
2022-08-17T00:03:11.725Z,64.11
2022-08-17T00:05:48.447Z,64.49
2022-08-17T00:08:21.213Z,64.30
2022-08-17T00:10:51.709Z,64.18
2022-08-17T00:13:25.694Z,64.27
2022-08-17T00:15:59.679Z,64.23
2022-08-17T00:19:01.132Z,64.27
2022-08-17T00:21:23.757Z,64.51
2022-08-17T00:23:54.869Z,64.88
2022-08-17T00:26:34.665Z,65.34
2022-08-17T00:29:19.451Z,65.42
2022-08-17T00:31:48.267Z,65.61
2022-08-17T00:34:16.391Z,65.49
2022-08-17T00:36:46.141Z,65.39
2022-08-17T00:39:14.240Z,65.70
2022-08-17T00:41:42.820Z,65.59
2022-08-17T00:44:12.212Z,65.60
2022-08-17T00:46:43.822Z,65.49
2022-08-17T00:49:14.144Z,65.44
2022-08-17T00:51:49.109Z,65.65
2022-08-17T00:54:23.370Z,65.76
2022-08-17T00:56:58.110Z,65.81
2022-08-17T00:59:31.826Z,65.86
2022-08-17T01:02:02.480Z,64.99
2022-08-17T01:04:33.369Z,65.22
2022-08-17T01:07:06.149Z,65.44
2022-08-17T01:09:34.980Z,65.47
2022-08-17T01:12:03.330Z,65.79
2022-08-17T01:14:31.603Z,65.65
2022-08-17T01:17:01.189Z,65.58
2022-08-17T01:19:34.270Z,64.90
2022-08-17T01:22:18.602Z,65.11
2022-08-17T01:24:52.094Z,64.78
2022-08-17T01:27:22.077Z,65.24
2022-08-17T01:29:56.831Z,65.55
2022-08-17T01:32:25.544Z,65.39
2022-08-17T01:34:54.523Z,65.18
2022-08-17T01:37:35.256Z,65.83
2022-08-17T01:40:10.382Z,66.54
2022-08-17T01:42:45.845Z,66.87
2022-08-17T01:45:22.985Z,66.35
2022-08-17T01:47:51.740Z,65.58
2022-08-17T01:50:26.925Z,66.23
2022-08-17T01:53:00.924Z,66.65
2022-08-17T01:55:37.797Z,67.16
2022-08-17T01:58:09.629Z,67.14
2022-08-17T02:00:58.189Z,66.50
2022-08-17T02:03:27.922Z,66.69
2022-08-17T02:05:56.643Z,67.17
2022-08-17T02:08:36.995Z,66.84
2022-08-17T02:11:11.890Z,67.21
2022-08-17T02:13:40.427Z,67.73
2022-08-17T02:16:08.592Z,67.91
2022-08-17T02:18:36.676Z,68.25
2022-08-17T02:21:06.960Z,67.33
2022-08-17T02:23:41.784Z,68.08
2022-08-17T02:26:10.480Z,68.40
2022-08-17T02:28:53.870Z,68.68
2022-08-17T02:31:22.217Z,68.57
2022-08-17T02:33:56.840Z,67.73
2022-08-17T02:36:35.027Z,67.53
2022-08-17T02:39:07.793Z,67.56
2022-08-17T02:41:36.569Z,67.62
2022-08-17T02:44:06.647Z,67.99
2022-08-17T02:46:35.159Z,68.46
2022-08-17T02:49:03.263Z,68.16
2022-08-17T02:51:32.075Z,68.13
2022-08-17T02:54:02.074Z,68.41
2022-08-17T02:56:49.638Z,68.57
2022-08-17T02:59:17.758Z,68.55
2022-08-17T03:01:45.982Z,69.06
2022-08-17T03:04:14.195Z,69.35
2022-08-17T03:06:42.304Z,69.00
2022-08-17T03:09:10.452Z,68.42
2022-08-17T03:11:38.522Z,68.69
2022-08-17T03:14:07.988Z,68.72
2022-08-17T03:16:36.194Z,68.62
2022-08-17T03:19:04.605Z,68.62
2022-08-17T03:21:32.728Z,69.36
2022-08-17T03:24:00.854Z,69.36
2022-08-17T03:26:35.371Z,69.05
2022-08-17T03:29:03.513Z,69.66
2022-08-17T03:31:33.388Z,70.00
2022-08-17T03:34:05.233Z,69.73
2022-08-17T03:36:36.078Z,69.49
2022-08-17T03:39:04.723Z,69.14
2022-08-17T03:41:33.088Z,69.24
2022-08-17T03:44:01.434Z,69.01
2022-08-17T03:46:47.240Z,69.35
2022-08-17T03:49:34.347Z,68.47
2022-08-17T03:52:20.045Z,67.74
2022-08-17T03:55:05.816Z,68.13
2022-08-17T03:57:34.086Z,68.50
2022-08-17T04:00:02.138Z,68.36
2022-08-17T04:02:34.018Z,68.61
2022-08-17T04:05:03.860Z,68.43
2022-08-17T04:07:32.800Z,68.10
2022-08-17T04:10:01.446Z,68.20
2022-08-17T04:12:44.431Z,67.57
2022-08-17T04:15:13.889Z,67.22
2022-08-17T04:17:44.168Z,66.12
2022-08-17T04:20:15.088Z,65.70
2022-08-17T04:22:57.894Z,64.92
2022-08-17T04:25:27.342Z,63.68
2022-08-17T04:27:56.611Z,62.27
2022-08-17T04:30:24.774Z,62.74
2022-08-17T04:33:00.810Z,62.89
2022-08-17T04:35:39.961Z,63.05
2022-08-17T04:38:10.253Z,62.65
2022-08-17T04:40:56.533Z,62.75
2022-08-17T04:43:27.497Z,62.32
2022-08-17T04:45:58.852Z,62.74
2022-08-17T04:48:36.120Z,62.59
2022-08-17T04:51:14.130Z,61.36
2022-08-17T04:53:45.726Z,61.83
2022-08-17T04:56:22.936Z,62.28
2022-08-17T04:58:54.049Z,62.20
2022-08-17T05:01:26.584Z,62.80
2022-08-17T05:03:58.974Z,62.77
2022-08-17T05:06:30.401Z,63.07
2022-08-17T05:09:00.315Z,62.99
2022-08-17T05:11:30.565Z,62.13
2022-08-17T05:14:00.346Z,62.13
2022-08-17T05:16:29.788Z,61.82
2022-08-17T05:18:59.181Z,61.97
2022-08-17T05:21:28.942Z,61.56
2022-08-17T05:23:58.433Z,61.47
2022-08-17T05:26:29.394Z,61.70
2022-08-17T05:29:02.491Z,61.48
2022-08-17T05:31:32.240Z,62.03
2022-08-17T05:34:01.478Z,60.99
2022-08-17T05:36:42.048Z,60.12
2022-08-17T05:39:16.124Z,60.42
2022-08-17T05:41:48.022Z,60.16
2022-08-17T05:44:17.276Z,59.53
2022-08-17T05:46:54.288Z,58.73
2022-08-17T05:49:29.447Z,58.55
2022-08-17T05:52:18.912Z,56.77
2022-08-17T05:55:17.260Z,56.95
2022-08-17T05:58:00.223Z,56.83
2022-08-17T06:00:36.695Z,57.13
2022-08-17T06:03:30.174Z,56.65
2022-08-17T06:06:31.519Z,56.38
2022-08-17T06:09:25.440Z,56.52
2022-08-17T06:12:03.762Z,55.55
2022-08-17T06:14:59.385Z,56.04
2022-08-17T06:17:29.420Z,55.42
2022-08-17T06:20:04.332Z,55.21
2022-08-17T06:22:37.297Z,55.17
2022-08-17T06:25:16.577Z,55.07
2022-08-17T06:27:53.683Z,54.63
2022-08-17T06:30:27.036Z,54.89
2022-08-17T06:33:05.700Z,55.14
2022-08-17T06:35:42.305Z,54.54
2022-08-17T06:38:37.386Z,53.98
2022-08-17T06:41:20.731Z,53.65
2022-08-17T06:44:07.284Z,54.28
2022-08-17T06:46:39.853Z,53.52
2022-08-17T06:49:21.996Z,53.47
2022-08-17T06:51:58.053Z,52.63
2022-08-17T06:54:38.952Z,52.23
2022-08-17T06:57:18.961Z,52.15
2022-08-17T06:59:56.344Z,50.42
2022-08-17T07:02:51.253Z,50.73
2022-08-17T07:05:41.335Z,49.98
2022-08-17T07:08:19.233Z,50.32
2022-08-17T07:10:52.504Z,49.34
2022-08-17T07:13:51.399Z,49.10
2022-08-17T07:16:28.656Z,48.64
2022-08-17T07:18:59.342Z,47.51
2022-08-17T07:21:47.371Z,46.79
2022-08-17T07:24:33.099Z,46.78
2022-08-17T07:27:13.479Z,46.79
2022-08-17T07:29:50.486Z,45.12
2022-08-17T07:32:24.955Z,44.73
2022-08-17T07:35:11.193Z,45.22
2022-08-17T07:37:41.835Z,45.21
2022-08-17T07:40:35.503Z,44.72
2022-08-17T07:43:23.049Z,45.09
2022-08-17T07:46:34.182Z,45.26
2022-08-17T07:49:20.613Z,45.00
2022-08-17T07:52:24.254Z,44.89
2022-08-17T07:54:58.557Z,44.93
2022-08-17T07:57:36.823Z,45.09
2022-08-17T08:00:19.504Z,45.33
2022-08-17T08:03:26.191Z,45.76
2022-08-17T08:06:02.103Z,45.47
2022-08-17T08:08:38.409Z,45.38
2022-08-17T08:11:15.184Z,45.47
2022-08-17T08:13:45.708Z,45.20
2022-08-17T08:16:24.359Z,45.12
2022-08-17T08:18:58.240Z,44.76
2022-08-17T08:21:43.812Z,44.65
2022-08-17T08:24:31.589Z,44.58
2022-08-17T08:27:14.110Z,44.13
2022-08-17T08:29:54.201Z,43.54
2022-08-17T08:32:46.488Z,43.13
2022-08-17T08:35:30.904Z,43.19
2022-08-17T08:38:14.778Z,41.65
2022-08-17T08:41:14.246Z,41.75
2022-08-17T08:43:54.764Z,41.60
2022-08-17T08:46:36.344Z,41.53
2022-08-17T08:50:02.532Z,40.79
2022-08-17T08:53:04.510Z,41.29
2022-08-17T08:55:54.224Z,41.38
2022-08-17T08:58:41.919Z,40.67
2022-08-17T09:01:22.056Z,40.55
2022-08-17T09:04:26.021Z,39.73
2022-08-17T09:07:16.170Z,39.51
2022-08-17T09:10:00.348Z,39.35
2022-08-17T09:12:42.617Z,39.18
2022-08-17T09:15:18.915Z,38.74
2022-08-17T09:18:28.410Z,38.42
2022-08-17T09:20:55.979Z,38.81
2022-08-17T09:23:34.671Z,38.86
2022-08-17T09:26:12.938Z,38.49
2022-08-17T09:28:49.110Z,38.77
2022-08-17T09:31:23.996Z,38.79
2022-08-17T09:33:53.765Z,39.01
2022-08-17T09:36:32.185Z,38.90
2022-08-17T09:39:07.206Z,38.14
2022-08-17T09:41:48.959Z,38.43
2022-08-17T09:44:31.898Z,37.66
2022-08-17T09:47:11.021Z,38.07
2022-08-17T09:49:46.417Z,37.32
2022-08-17T09:52:22.713Z,37.11
2022-08-17T09:54:54.325Z,36.35
2022-08-17T09:57:47.411Z,36.74
2022-08-17T10:00:25.099Z,36.77
2022-08-17T10:03:28.186Z,36.78
2022-08-17T10:06:08.271Z,36.80
2022-08-17T10:08:51.869Z,36.56
2022-08-17T10:11:47.601Z,36.33
2022-08-17T10:14:37.970Z,36.42
2022-08-17T10:17:28.482Z,36.70
2022-08-17T10:20:10.792Z,36.08
2022-08-17T10:23:04.516Z,36.54
2022-08-17T10:26:09.226Z,36.00
2022-08-17T10:28:47.751Z,36.07
2022-08-17T10:31:34.617Z,35.59
2022-08-17T10:34:30.412Z,35.64
2022-08-17T10:37:46.484Z,35.32
2022-08-17T10:40:35.853Z,35.78
2022-08-17T10:43:24.744Z,35.43
2022-08-17T10:46:10.692Z,35.49
2022-08-17T10:49:25.265Z,34.57
2022-08-17T10:51:56.450Z,35.02
2022-08-17T10:54:47.933Z,34.66
2022-08-17T10:57:41.825Z,34.90
2022-08-17T11:00:15.960Z,34.80
2022-08-17T11:02:50.818Z,35.05
2022-08-17T11:05:54.845Z,35.01
2022-08-17T11:08:49.045Z,35.05
2022-08-17T11:12:06.568Z,34.50
2022-08-17T11:15:02.297Z,34.69
2022-08-17T11:18:03.312Z,34.46
2022-08-17T11:21:05.115Z,34.33
2022-08-17T11:24:08.384Z,34.55
2022-08-17T11:26:42.174Z,34.68
2022-08-17T11:29:25.601Z,33.88
2022-08-17T11:32:11.182Z,33.74
2022-08-17T11:34:43.391Z,33.91
2022-08-17T11:37:37.266Z,33.89
2022-08-17T11:40:26.399Z,33.81
2022-08-17T11:43:25.666Z,33.50
2022-08-17T11:46:18.337Z,33.89
2022-08-17T11:49:21.214Z,34.08
2022-08-17T11:52:15.630Z,34.22
2022-08-17T11:54:47.961Z,34.15
2022-08-17T11:58:01.797Z,34.27
2022-08-17T12:00:58.320Z,34.33
2022-08-17T12:03:54.298Z,33.00
2022-08-17T12:06:47.716Z,32.80
2022-08-17T12:09:24.443Z,32.50
2022-08-17T12:12:12.933Z,32.59
2022-08-17T12:17:41.327Z,32.41
2022-08-17T12:20:33.298Z,32.91
2022-08-17T12:23:13.348Z,32.63
2022-08-17T12:25:51.318Z,32.04
2022-08-17T12:28:30.892Z,31.74
2022-08-17T12:31:03.336Z,31.61
2022-08-17T12:33:32.286Z,31.72
2022-08-17T12:36:05.864Z,31.85
2022-08-17T12:38:38.122Z,30.46
2022-08-17T12:41:28.778Z,30.46
2022-08-17T12:44:02.282Z,30.69
2022-08-17T12:46:35.719Z,30.38
2022-08-17T12:49:17.193Z,30.23
2022-08-17T12:51:47.799Z,29.94
2022-08-17T12:54:35.863Z,29.89
2022-08-17T12:57:16.732Z,29.50
2022-08-17T12:59:51.276Z,29.57
2022-08-17T13:02:42.760Z,29.57
2022-08-17T13:05:23.908Z,29.57
2022-08-17T13:07:54.521Z,29.16
2022-08-17T13:10:32.488Z,28.85
2022-08-17T13:13:05.847Z,28.76
2022-08-17T13:15:44.465Z,28.67
2022-08-17T13:18:39.922Z,28.90
2022-08-17T13:21:22.142Z,29.02
2022-08-17T13:24:02.978Z,29.65
2022-08-17T13:26:38.251Z,30.13
2022-08-17T13:29:23.800Z,30.19
2022-08-17T13:31:56.639Z,29.41
2022-08-17T13:35:06.512Z,29.12
2022-08-17T13:37:33.943Z,29.09
2022-08-17T13:40:33.433Z,29.27
2022-08-17T13:43:03.196Z,29.00
2022-08-17T13:45:50.388Z,28.78
2022-08-17T13:48:26.929Z,29.35
2022-08-17T13:51:27.793Z,29.92
2022-08-17T13:54:29.017Z,29.82
2022-08-17T13:57:02.243Z,29.34
2022-08-17T13:59:54.908Z,29.49
2022-08-17T14:02:27.960Z,29.88
2022-08-17T14:05:00.477Z,30.10
2022-08-17T14:07:34.595Z,29.63
2022-08-17T14:10:08.665Z,29.39
2022-08-17T14:12:40.069Z,29.85
2022-08-17T14:15:10.676Z,29.82
2022-08-17T14:17:40.178Z,29.02
2022-08-17T14:20:13.156Z,29.42
2022-08-17T14:22:46.200Z,29.08
2022-08-17T14:25:17.538Z,29.29
2022-08-17T14:27:53.601Z,29.41
2022-08-17T14:30:25.257Z,29.51
2022-08-17T14:32:56.371Z,29.31
2022-08-17T14:35:27.796Z,29.25
2022-08-17T14:37:56.358Z,28.78
2022-08-17T14:40:25.999Z,28.83
2022-08-17T14:42:57.613Z,29.36
2022-08-17T14:45:29.716Z,29.09
2022-08-17T14:48:05.486Z,29.59
2022-08-17T14:50:35.362Z,29.55
2022-08-17T14:53:05.361Z,29.95
2022-08-17T14:55:34.570Z,30.29
2022-08-17T14:58:03.887Z,30.36
2022-08-17T15:00:32.377Z,29.53
2022-08-17T15:03:03.262Z,30.32
2022-08-17T15:05:35.159Z,30.08
2022-08-17T15:08:05.434Z,30.32
2022-08-17T15:10:34.368Z,30.41
2022-08-17T15:13:02.673Z,30.55
2022-08-17T15:15:31.117Z,29.67
2022-08-17T15:18:00.453Z,29.70
2022-08-17T15:20:31.331Z,30.08
2022-08-17T15:23:00.106Z,29.64
2022-08-17T15:25:31.728Z,30.04
2022-08-17T15:28:01.189Z,30.32
2022-08-17T15:30:31.599Z,30.25
2022-08-17T15:33:01.803Z,30.07
2022-08-17T15:35:34.097Z,30.31
2022-08-17T15:38:11.153Z,30.36
2022-08-17T15:40:44.539Z,30.21
2022-08-17T15:43:16.065Z,29.77
2022-08-17T15:45:58.803Z,29.76
2022-08-17T15:48:40.661Z,30.19
2022-08-17T15:51:14.453Z,30.03
2022-08-17T15:53:45.451Z,30.44
2022-08-17T15:56:15.296Z,30.59
2022-08-17T15:58:46.577Z,31.06
2022-08-17T16:01:44.599Z,30.83
2022-08-17T16:04:06.931Z,30.48
2022-08-17T16:06:55.578Z,30.93
2022-08-17T16:09:23.660Z,30.76
2022-08-17T16:11:53.870Z,31.04
2022-08-17T16:14:24.281Z,30.94
2022-08-17T16:16:53.209Z,30.77
2022-08-17T16:19:21.226Z,31.18
2022-08-17T16:21:49.267Z,31.19
2022-08-17T16:24:18.616Z,31.10
2022-08-17T16:26:46.597Z,31.04
2022-08-17T16:29:14.619Z,30.82
2022-08-17T16:31:43.223Z,30.74
2022-08-17T16:34:17.240Z,31.03
2022-08-17T16:36:54.722Z,30.52
2022-08-17T16:39:28.779Z,30.61
2022-08-17T16:41:58.385Z,30.59
2022-08-17T16:44:31.758Z,30.54
2022-08-17T16:47:01.730Z,30.57
2022-08-17T16:49:36.621Z,30.55
2022-08-17T16:52:07.672Z,30.33
2022-08-17T16:54:40.564Z,30.16
2022-08-17T16:57:08.545Z,30.49
2022-08-17T16:59:40.993Z,30.73
2022-08-17T17:02:14.947Z,30.61
2022-08-17T17:04:52.672Z,31.03
2022-08-17T17:07:53.590Z,31.18
2022-08-17T17:10:31.696Z,31.49
2022-08-17T17:13:03.310Z,32.00
2022-08-17T17:15:54.943Z,31.96
2022-08-17T17:18:37.347Z,32.25
2022-08-17T17:21:08.171Z,32.20
2022-08-17T17:23:47.891Z,32.32
2022-08-17T17:26:46.205Z,32.79
2022-08-17T17:29:47.702Z,32.68
2022-08-17T17:32:28.985Z,32.93
2022-08-17T17:35:09.529Z,33.33
2022-08-17T17:37:40.909Z,33.43
2022-08-17T17:40:19.062Z,33.51
2022-08-17T17:42:52.738Z,33.76
2022-08-17T17:45:26.030Z,33.65
2022-08-17T17:47:54.647Z,33.86
2022-08-17T17:50:43.870Z,33.86
2022-08-17T17:53:34.843Z,34.27
2022-08-17T17:56:19.628Z,34.86
2022-08-17T17:59:19.495Z,34.98
2022-08-17T18:01:59.945Z,35.16
2022-08-17T18:04:40.289Z,35.19
2022-08-17T18:07:23.674Z,35.15
2022-08-17T18:10:13.761Z,35.10
2022-08-17T18:13:12.586Z,35.56
2022-08-17T18:15:51.014Z,35.72
2022-08-17T18:18:38.464Z,35.93
2022-08-17T18:21:15.808Z,36.11
2022-08-17T18:23:57.095Z,36.49
2022-08-17T18:26:45.152Z,36.90
2022-08-17T18:29:39.924Z,37.24
2022-08-17T18:32:20.280Z,37.36
2022-08-17T18:34:53.305Z,37.27
2022-08-17T18:37:42.655Z,37.24
2022-08-17T18:40:37.997Z,37.14
2022-08-17T18:43:23.970Z,37.70
2022-08-17T18:45:55.831Z,37.68
2022-08-17T18:48:32.968Z,37.79
2022-08-17T18:51:21.331Z,37.74
2022-08-17T18:54:22.077Z,37.70
2022-08-17T18:56:54.584Z,37.90
2022-08-17T18:59:41.014Z,38.22
2022-08-17T19:02:45.172Z,38.40
2022-08-17T19:05:33.782Z,39.12
2022-08-17T19:08:33.444Z,39.31
2022-08-17T19:11:08.418Z,39.04
2022-08-17T19:13:43.550Z,39.42
2022-08-17T19:16:19.738Z,39.13
2022-08-17T19:18:57.867Z,38.92
2022-08-17T19:21:37.364Z,37.86
2022-08-17T19:24:12.466Z,37.21
2022-08-17T19:26:54.075Z,37.13
2022-08-17T19:29:34.260Z,36.89
2022-08-17T19:32:02.894Z,37.11
2022-08-17T19:34:36.686Z,37.49
2022-08-17T19:37:13.638Z,37.50
2022-08-17T19:39:56.349Z,37.44
2022-08-17T19:42:42.427Z,37.86
2022-08-17T19:45:24.826Z,38.07
2022-08-17T19:48:06.825Z,37.69
2022-08-17T19:50:45.095Z,37.76
2022-08-17T19:53:47.771Z,38.03
2022-08-17T19:56:31.633Z,38.06
2022-08-17T19:59:12.802Z,38.49
2022-08-17T20:01:52.265Z,38.67
2022-08-17T20:04:36.637Z,39.16
2022-08-17T20:07:11.345Z,39.42
2022-08-17T20:09:49.256Z,39.76
2022-08-17T20:12:25.277Z,40.02
2022-08-17T20:14:58.551Z,39.73
2022-08-17T20:17:32.724Z,40.42
2022-08-17T20:20:19.963Z,40.79
2022-08-17T20:22:59.735Z,41.00
2022-08-17T20:25:47.110Z,41.43
2022-08-17T20:28:28.150Z,41.41
2022-08-17T20:30:56.915Z,41.59
2022-08-17T20:33:29.962Z,41.84
2022-08-17T20:36:18.594Z,42.16
2022-08-17T20:38:52.306Z,42.66
2022-08-17T20:41:24.706Z,42.88
2022-08-17T20:44:06.035Z,43.35
2022-08-17T20:46:58.959Z,43.29
2022-08-17T20:49:49.609Z,43.78
2022-08-17T20:52:52.944Z,43.62
2022-08-17T20:55:55.746Z,44.16
2022-08-17T20:58:48.298Z,44.06
2022-08-17T21:01:34.897Z,44.76
2022-08-17T21:04:10.438Z,45.03
2022-08-17T21:07:28.969Z,45.09
2022-08-17T21:10:14.257Z,45.67
2022-08-17T21:12:47.977Z,45.50
2022-08-17T21:15:37.417Z,45.83
2022-08-17T21:18:18.496Z,46.10
2022-08-17T21:21:15.359Z,46.53
2022-08-17T21:24:09.014Z,46.76
2022-08-17T21:26:59.790Z,46.67
2022-08-17T21:29:33.966Z,46.71
2022-08-17T21:32:24.466Z,47.06
2022-08-17T21:35:30.425Z,46.83
2022-08-17T21:38:05.173Z,46.97
2022-08-17T21:40:36.351Z,47.10
2022-08-17T21:43:23.463Z,47.00
2022-08-17T21:46:26.164Z,47.02
2022-08-17T21:48:57.206Z,47.07
2022-08-17T21:51:30.183Z,47.18
2022-08-17T21:54:02.423Z,47.54
2022-08-17T21:56:36.207Z,47.92
2022-08-17T21:59:08.397Z,48.37
2022-08-17T22:01:40.315Z,48.22
2022-08-17T22:04:25.313Z,48.69
2022-08-17T22:06:57.321Z,48.78
2022-08-17T22:09:31.500Z,48.87
2022-08-17T22:12:11.238Z,49.49
2022-08-17T22:14:52.326Z,49.45
2022-08-17T22:17:25.828Z,49.46
2022-08-17T22:19:59.121Z,49.48
2022-08-17T22:22:33.666Z,49.60
2022-08-17T22:25:05.824Z,49.88
2022-08-17T22:27:54.495Z,50.40
2022-08-17T22:30:59.150Z,50.47
2022-08-17T22:33:39.574Z,50.49
2022-08-17T22:36:29.014Z,51.24
2022-08-17T22:38:59.778Z,51.21
2022-08-17T22:41:50.731Z,51.14
2022-08-17T22:44:29.497Z,51.33
2022-08-17T22:47:24.670Z,51.46
2022-08-17T22:49:57.609Z,51.77
2022-08-17T22:52:34.442Z,51.83
2022-08-17T22:55:26.948Z,52.36
2022-08-17T22:58:12.910Z,52.45
2022-08-17T23:00:45.931Z,52.67
2022-08-17T23:03:19.602Z,52.70
2022-08-17T23:06:04.406Z,53.36
2022-08-17T23:08:35.649Z,53.54
2022-08-17T23:11:06.360Z,53.65
2022-08-17T23:13:34.506Z,53.07
2022-08-17T23:16:04.839Z,53.38
2022-08-17T23:18:33.016Z,53.14
2022-08-17T23:21:01.185Z,53.53
2022-08-17T23:23:31.278Z,53.77
2022-08-17T23:25:59.384Z,52.89
2022-08-17T23:28:28.489Z,53.12
2022-08-17T23:30:56.573Z,53.27
2022-08-17T23:33:34.336Z,54.00
2022-08-17T23:36:02.859Z,53.48
2022-08-17T23:38:32.888Z,53.26
2022-08-17T23:41:05.579Z,53.95
2022-08-17T23:43:34.404Z,53.92
2022-08-17T23:46:03.545Z,54.08
2022-08-17T23:48:36.743Z,53.75
2022-08-17T23:51:12.285Z,53.63
2022-08-17T23:53:47.280Z,53.18
2022-08-17T23:56:17.463Z,53.25
2022-08-17T23:58:46.287Z,52.92
